createdAt,value
2022-09-02T00:00:55.460Z,1.10
2022-09-02T00:01:55.548Z,1.20
2022-09-02T00:02:55.520Z,1.40
2022-09-02T00:03:55.464Z,1.20
2022-09-02T00:04:55.412Z,1.10
2022-09-02T00:05:55.421Z,1.20
2022-09-02T00:06:55.389Z,1.20
2022-09-02T00:07:55.386Z,1.20
2022-09-02T00:08:55.442Z,1.10
2022-09-02T00:09:55.345Z,1.10
2022-09-02T00:10:55.337Z,1.30
2022-09-02T00:11:55.323Z,1.30
2022-09-02T00:12:55.338Z,1.30
2022-09-02T00:13:55.292Z,1.20
2022-09-02T00:14:55.300Z,1.20
2022-09-02T00:15:55.284Z,1.20
2022-09-02T00:16:55.370Z,1.30
2022-09-02T00:17:55.252Z,1.00
2022-09-02T00:18:55.226Z,1.10
2022-09-02T00:19:56.218Z,1.10
2022-09-02T00:20:55.215Z,1.10
2022-09-02T00:21:55.186Z,1.30
2022-09-02T00:22:55.202Z,1.20
2022-09-02T00:23:55.190Z,1.20
2022-09-02T00:24:55.142Z,1.00
2022-09-02T00:25:55.148Z,1.20
2022-09-02T00:26:56.645Z,1.30
2022-09-02T00:27:55.127Z,1.10
2022-09-02T00:28:55.885Z,1.10
2022-09-02T00:29:55.093Z,1.10
2022-09-02T00:30:55.081Z,1.10
2022-09-02T00:31:55.101Z,1.20
2022-09-02T00:32:55.073Z,1.30
2022-09-02T00:33:55.024Z,1.20
2022-09-02T00:34:55.041Z,1.20
2022-09-02T00:35:55.014Z,1.00
2022-09-02T00:36:54.981Z,1.20
2022-09-02T00:37:54.989Z,1.00
2022-09-02T00:38:54.961Z,1.20
2022-09-02T00:39:54.962Z,1.10
2022-09-02T00:40:54.970Z,1.40
2022-09-02T00:41:54.932Z,1.20
2022-09-02T00:42:54.936Z,1.30
2022-09-02T00:43:54.923Z,1.30
2022-09-02T00:44:54.879Z,1.30
2022-09-02T00:45:54.931Z,1.50
2022-09-02T00:46:54.863Z,1.40
2022-09-02T00:47:54.853Z,1.30
2022-09-02T00:48:54.836Z,1.30
2022-09-02T00:49:55.230Z,1.20
2022-09-02T00:50:54.871Z,1.30
2022-09-02T00:51:54.796Z,1.20
2022-09-02T00:52:54.776Z,1.10
2022-09-02T00:53:54.769Z,1.00
2022-09-02T00:54:54.769Z,1.20
2022-09-02T00:55:54.751Z,1.20
2022-09-02T00:56:55.785Z,1.20
2022-09-02T00:57:54.717Z,1.20
2022-09-02T00:58:54.699Z,1.20
2022-09-02T00:59:54.693Z,1.20
2022-09-02T01:00:54.774Z,1.10
2022-09-02T01:01:54.816Z,1.20
2022-09-02T01:02:54.666Z,1.10
2022-09-02T01:03:54.670Z,1.30
2022-09-02T01:04:54.651Z,1.40
2022-09-02T01:05:54.645Z,1.10
2022-09-02T01:06:54.605Z,1.40
2022-09-02T01:07:54.590Z,1.30
2022-09-02T01:08:54.568Z,1.40
2022-09-02T01:09:54.566Z,1.20
2022-09-02T01:10:54.549Z,1.20
2022-09-02T01:11:54.526Z,1.00
2022-09-02T01:12:54.531Z,1.30
2022-09-02T01:13:54.511Z,1.30
2022-09-02T01:14:54.486Z,1.10
2022-09-02T01:15:54.506Z,1.20
2022-09-02T01:16:54.462Z,1.30
2022-09-02T01:17:54.472Z,1.10
2022-09-02T01:18:54.430Z,1.10
2022-09-02T01:19:54.415Z,1.10
2022-09-02T01:20:54.409Z,1.20
2022-09-02T01:21:54.425Z,1.10
2022-09-02T01:22:54.381Z,1.30
2022-09-02T01:23:54.366Z,1.00
2022-09-02T01:24:54.380Z,1.10
2022-09-02T01:25:54.343Z,1.20
2022-09-02T01:26:54.374Z,1.20
2022-09-02T01:27:54.328Z,1.40
2022-09-02T01:28:54.296Z,1.10
2022-09-02T01:29:54.302Z,1.50
2022-09-02T01:30:54.278Z,1.50
2022-09-02T01:31:54.334Z,1.20
2022-09-02T01:32:54.253Z,1.20
2022-09-02T01:33:54.229Z,1.20
2022-09-02T01:34:54.224Z,1.20
2022-09-02T01:35:54.216Z,1.20
2022-09-02T01:36:54.201Z,1.20
2022-09-02T01:37:55.387Z,1.20
2022-09-02T01:38:54.160Z,1.20
2022-09-02T01:39:54.148Z,1.20
2022-09-02T01:40:54.133Z,1.40
2022-09-02T01:41:54.153Z,1.10
2022-09-02T01:42:54.126Z,1.20
2022-09-02T01:43:54.094Z,1.20
2022-09-02T01:44:54.106Z,1.20
2022-09-02T01:45:54.068Z,1.20
2022-09-02T01:46:54.129Z,1.10
2022-09-02T01:47:54.037Z,1.10
2022-09-02T01:48:54.897Z,1.00
2022-09-02T01:49:54.048Z,1.20
2022-09-02T01:50:53.997Z,1.10
2022-09-02T01:51:54.000Z,1.10
2022-09-02T01:52:53.972Z,1.40
2022-09-02T01:53:53.963Z,1.10
2022-09-02T01:54:53.940Z,1.20
2022-09-02T01:55:53.945Z,1.10
2022-09-02T01:56:53.933Z,1.20
2022-09-02T01:57:53.934Z,1.30
2022-09-02T01:58:53.912Z,1.10
2022-09-02T01:59:53.889Z,1.10
2022-09-02T02:00:53.909Z,1.10
2022-09-02T02:01:53.919Z,1.30
2022-09-02T02:02:53.830Z,1.20
2022-09-02T02:03:53.823Z,1.10
2022-09-02T02:04:53.841Z,1.30
2022-09-02T02:05:53.801Z,1.20
2022-09-02T02:06:53.792Z,1.00
2022-09-02T02:07:53.788Z,1.20
2022-09-02T02:08:53.751Z,1.30
2022-09-02T02:09:53.754Z,1.10
2022-09-02T02:10:53.763Z,1.20
2022-09-02T02:11:53.735Z,1.30
2022-09-02T02:12:53.695Z,1.30
2022-09-02T02:13:53.691Z,1.30
2022-09-02T02:14:53.685Z,1.10
2022-09-02T02:15:53.693Z,1.10
2022-09-02T02:16:53.666Z,1.10
2022-09-02T02:17:53.745Z,1.20
2022-09-02T02:18:53.634Z,1.20
2022-09-02T02:19:53.608Z,1.20
2022-09-02T02:20:53.593Z,1.50
2022-09-02T02:21:53.591Z,1.10
2022-09-02T02:22:53.574Z,1.20
2022-09-02T02:23:53.557Z,1.10
2022-09-02T02:24:53.646Z,1.00
2022-09-02T02:25:53.525Z,1.20
2022-09-02T02:26:53.516Z,1.10
2022-09-02T02:27:53.505Z,1.10
2022-09-02T02:28:53.498Z,1.10
2022-09-02T02:29:53.835Z,1.40
2022-09-02T02:30:53.479Z,1.30
2022-09-02T02:31:53.486Z,1.20
2022-09-02T02:32:53.448Z,1.30
2022-09-02T02:33:53.429Z,1.10
2022-09-02T02:34:53.405Z,1.10
2022-09-02T02:35:53.405Z,1.20
2022-09-02T02:36:53.421Z,1.20
2022-09-02T02:37:53.382Z,1.10
2022-09-02T02:38:53.365Z,1.20
2022-09-02T02:39:53.348Z,1.10
2022-09-02T02:40:53.379Z,1.10
2022-09-02T02:41:53.312Z,1.30
2022-09-02T02:42:53.311Z,1.10
2022-09-02T02:43:53.286Z,1.00
2022-09-02T02:44:53.268Z,1.10
2022-09-02T02:45:53.273Z,1.30
2022-09-02T02:46:53.319Z,1.20
2022-09-02T02:47:53.243Z,1.10
2022-09-02T02:48:53.222Z,1.20
2022-09-02T02:49:53.206Z,1.20
2022-09-02T02:50:53.211Z,1.30
2022-09-02T02:51:53.296Z,1.20
2022-09-02T02:52:53.189Z,1.30
2022-09-02T02:53:56.890Z,1.40
2022-09-02T02:54:53.149Z,1.10
2022-09-02T02:55:53.135Z,1.10
2022-09-02T02:56:53.121Z,1.10
2022-09-02T02:57:53.092Z,1.20
2022-09-02T02:58:53.094Z,1.10
2022-09-02T02:59:53.063Z,1.40
2022-09-02T03:00:53.072Z,1.20
2022-09-02T03:01:53.199Z,1.20
2022-09-02T03:02:53.134Z,1.40
2022-09-02T03:03:53.042Z,1.40
2022-09-02T03:04:53.002Z,1.10
2022-09-02T03:05:53.030Z,1.20
2022-09-02T03:06:53.023Z,1.10
2022-09-02T03:07:52.972Z,1.20
2022-09-02T03:08:52.964Z,1.30
2022-09-02T03:09:52.936Z,1.10
2022-09-02T03:10:52.943Z,1.50
2022-09-02T03:11:52.938Z,1.40
2022-09-02T03:12:52.914Z,1.20
2022-09-02T03:13:52.902Z,1.10
2022-09-02T03:14:52.888Z,1.20
2022-09-02T03:15:52.922Z,1.10
2022-09-02T03:16:52.849Z,1.20
2022-09-02T03:17:52.843Z,1.20
2022-09-02T03:18:52.825Z,1.30
2022-09-02T03:19:52.804Z,1.20
2022-09-02T03:20:52.820Z,1.40
2022-09-02T03:21:52.781Z,1.30
2022-09-02T03:22:52.771Z,1.00
2022-09-02T03:23:52.759Z,1.40
2022-09-02T03:24:52.830Z,1.30
2022-09-02T03:25:52.735Z,1.20
2022-09-02T03:26:52.711Z,1.30
2022-09-02T03:27:52.699Z,1.20
2022-09-02T03:28:52.695Z,1.30
2022-09-02T03:29:52.681Z,1.40
2022-09-02T03:30:52.750Z,1.10
2022-09-02T03:31:52.671Z,1.20
2022-09-02T03:32:52.652Z,1.50
2022-09-02T03:33:52.617Z,1.10
2022-09-02T03:34:52.616Z,1.40
2022-09-02T03:35:52.605Z,1.30
2022-09-02T03:36:52.576Z,1.30
2022-09-02T03:37:52.562Z,1.10
2022-09-02T03:38:52.551Z,1.00
2022-09-02T03:39:52.529Z,1.20
2022-09-02T03:40:52.603Z,1.20
2022-09-02T03:41:52.535Z,1.20
2022-09-02T03:42:55.598Z,1.20
2022-09-02T03:43:52.490Z,1.20
2022-09-02T03:44:52.465Z,1.30
2022-09-02T03:45:52.500Z,1.30
2022-09-02T03:46:52.443Z,1.30
2022-09-02T03:47:52.476Z,1.00
2022-09-02T03:48:52.414Z,1.40
2022-09-02T03:49:52.410Z,1.20
2022-09-02T03:50:52.395Z,1.20
2022-09-02T03:51:52.435Z,1.30
2022-09-02T03:52:52.361Z,1.10
2022-09-02T03:53:52.360Z,1.30
2022-09-02T03:54:52.346Z,1.40
2022-09-02T03:55:52.331Z,1.60
2022-09-02T03:56:52.302Z,1.30
2022-09-02T03:57:52.299Z,1.20
2022-09-02T03:58:52.288Z,1.20
2022-09-02T03:59:52.283Z,1.60
2022-09-02T04:00:52.265Z,1.40
2022-09-02T04:01:52.284Z,1.30
2022-09-02T04:02:52.359Z,1.20
2022-09-02T04:03:52.205Z,1.10
2022-09-02T04:04:52.207Z,1.10
2022-09-02T04:05:52.459Z,1.30
2022-09-02T04:06:52.200Z,1.30
2022-09-02T04:07:52.254Z,1.40
2022-09-02T04:08:52.149Z,1.40
2022-09-02T04:09:52.125Z,1.50
2022-09-02T04:10:52.132Z,1.30
2022-09-02T04:11:52.108Z,1.20
2022-09-02T04:12:52.105Z,1.30
2022-09-02T04:13:52.164Z,1.10
2022-09-02T04:14:58.507Z,1.20
2022-09-02T04:15:52.114Z,1.40
2022-09-02T04:16:52.042Z,1.30
2022-09-02T04:17:52.028Z,1.10
2022-09-02T04:18:52.029Z,1.40
2022-09-02T04:19:52.011Z,1.10
2022-09-02T04:20:51.995Z,1.20
2022-09-02T04:21:51.979Z,1.20
2022-09-02T04:22:52.115Z,1.20
2022-09-02T04:23:51.961Z,1.30
2022-09-02T04:24:51.924Z,1.50
2022-09-02T04:25:51.918Z,1.20
2022-09-02T04:26:51.906Z,1.40
2022-09-02T04:27:51.884Z,1.20
2022-09-02T04:28:51.889Z,1.40
2022-09-02T04:29:51.861Z,1.10
2022-09-02T04:30:51.923Z,1.40
2022-09-02T04:31:51.842Z,1.40
2022-09-02T04:32:51.818Z,1.70
2022-09-02T04:33:51.810Z,1.60
2022-09-02T04:34:51.806Z,1.30
2022-09-02T04:35:51.781Z,1.20
2022-09-02T04:36:51.784Z,1.30
2022-09-02T04:37:51.780Z,1.30
2022-09-02T04:38:51.754Z,1.30
2022-09-02T04:39:51.740Z,1.50
2022-09-02T04:40:52.027Z,1.50
2022-09-02T04:41:51.710Z,1.50
2022-09-02T04:42:51.721Z,1.50
2022-09-02T04:43:51.689Z,1.60
2022-09-02T04:44:51.666Z,1.40
2022-09-02T04:45:51.699Z,1.30
2022-09-02T04:46:51.645Z,1.70
2022-09-02T04:47:51.610Z,1.50
2022-09-02T04:48:51.621Z,1.50
2022-09-02T04:49:51.594Z,1.50
2022-09-02T04:50:52.577Z,1.60
2022-09-02T04:51:51.577Z,1.40
2022-09-02T04:52:51.594Z,1.50
2022-09-02T04:53:51.549Z,1.40
2022-09-02T04:54:51.528Z,1.50
2022-09-02T04:55:54.789Z,1.40
2022-09-02T04:56:51.499Z,1.50
2022-09-02T04:57:52.470Z,1.80
2022-09-02T04:58:51.474Z,1.70
2022-09-02T04:59:51.460Z,1.40
2022-09-02T05:00:51.441Z,1.40
2022-09-02T05:01:51.542Z,1.50
2022-09-02T05:02:51.522Z,1.80
2022-09-02T05:03:51.401Z,1.50
2022-09-02T05:04:51.413Z,1.30
2022-09-02T05:05:51.371Z,1.30
2022-09-02T05:06:51.392Z,1.30
2022-09-02T05:07:51.390Z,1.30
2022-09-02T05:08:51.338Z,1.30
2022-09-02T05:09:51.355Z,1.50
2022-09-02T05:10:51.308Z,1.50
2022-09-02T05:11:51.295Z,1.40
2022-09-02T05:12:51.308Z,1.20
2022-09-02T05:13:51.267Z,1.20
2022-09-02T05:14:51.292Z,1.40
2022-09-02T05:15:51.301Z,1.40
2022-09-02T05:16:51.234Z,1.60
2022-09-02T05:17:51.256Z,1.50
2022-09-02T05:18:53.620Z,1.40
2022-09-02T05:19:51.205Z,1.40
2022-09-02T05:20:51.260Z,1.50
2022-09-02T05:21:51.161Z,1.40
2022-09-02T05:22:51.197Z,1.30
2022-09-02T05:23:51.138Z,2.50
2022-09-02T05:24:54.574Z,1.80
2022-09-02T05:25:51.227Z,1.60
2022-09-02T05:26:51.093Z,1.60
2022-09-02T05:27:51.083Z,1.50
2022-09-02T05:28:51.076Z,1.30
2022-09-02T05:29:51.078Z,1.40
2022-09-02T05:30:51.084Z,1.40
2022-09-02T05:31:51.021Z,1.30
2022-09-02T05:32:51.027Z,1.60
2022-09-02T05:33:51.005Z,1.40
2022-09-02T05:34:51.005Z,1.40
2022-09-02T05:35:51.020Z,1.40
2022-09-02T05:36:50.968Z,1.50
2022-09-02T05:37:51.024Z,1.60
2022-09-02T05:38:50.966Z,1.60
2022-09-02T05:39:51.054Z,1.60
2022-09-02T05:40:50.945Z,1.60
2022-09-02T05:41:50.895Z,1.40
2022-09-02T05:42:50.889Z,1.40
2022-09-02T05:43:50.910Z,1.30
2022-09-02T05:44:50.987Z,1.70
2022-09-02T05:45:50.896Z,1.40
2022-09-02T05:46:50.832Z,1.40
2022-09-02T05:47:50.822Z,1.70
2022-09-02T05:48:50.797Z,1.60
2022-09-02T05:49:50.798Z,1.60
2022-09-02T05:50:57.360Z,1.40
2022-09-02T05:51:50.773Z,1.40
2022-09-02T05:52:50.747Z,1.40
2022-09-02T05:53:50.758Z,1.40
2022-09-02T05:54:50.783Z,1.60
2022-09-02T05:55:50.753Z,1.40
2022-09-02T05:56:50.698Z,1.50
2022-09-02T05:57:50.684Z,1.60
2022-09-02T05:58:50.690Z,1.40
2022-09-02T05:59:50.663Z,1.30
2022-09-02T06:00:50.644Z,1.40
2022-09-02T06:01:50.672Z,1.60
2022-09-02T06:02:50.662Z,1.60
2022-09-02T06:03:50.619Z,1.30
2022-09-02T06:04:50.738Z,1.40
2022-09-02T06:05:50.594Z,1.30
2022-09-02T06:06:50.599Z,1.50
2022-09-02T06:07:50.545Z,1.40
2022-09-02T06:08:50.537Z,1.50
2022-09-02T06:09:50.566Z,1.40
2022-09-02T06:10:50.515Z,1.40
2022-09-02T06:11:50.490Z,1.40
2022-09-02T06:12:50.476Z,1.50
2022-09-02T06:13:50.471Z,2.10
2022-09-02T06:14:50.444Z,1.70
2022-09-02T06:15:50.537Z,1.80
2022-09-02T06:16:50.472Z,1.60
2022-09-02T06:17:50.429Z,1.30
2022-09-02T06:18:50.401Z,1.50
2022-09-02T06:19:52.584Z,1.70
2022-09-02T06:20:50.387Z,1.50
2022-09-02T06:21:50.361Z,1.50
2022-09-02T06:22:50.354Z,1.50
2022-09-02T06:23:50.350Z,1.40
2022-09-02T06:24:50.313Z,1.40
2022-09-02T06:25:50.395Z,2.00
2022-09-02T06:26:50.286Z,1.40
2022-09-02T06:27:50.300Z,1.40
2022-09-02T06:28:50.258Z,1.50
2022-09-02T06:29:50.286Z,1.40
2022-09-02T06:30:50.330Z,1.60
2022-09-02T06:31:50.229Z,1.20
2022-09-02T06:32:50.373Z,1.50
2022-09-02T06:33:50.214Z,1.50
2022-09-02T06:34:50.273Z,1.90
2022-09-02T06:35:50.202Z,1.50
2022-09-02T06:36:50.226Z,1.50
2022-09-02T06:37:50.149Z,1.80
2022-09-02T06:38:50.133Z,1.70
2022-09-02T06:39:50.117Z,1.90
2022-09-02T06:40:50.257Z,1.70
2022-09-02T06:41:50.090Z,1.30
2022-09-02T06:42:50.086Z,1.60
2022-09-02T06:43:50.151Z,1.60
2022-09-02T06:44:50.049Z,1.60
2022-09-02T06:45:50.109Z,1.50
2022-09-02T06:46:54.136Z,1.40
2022-09-02T06:47:50.089Z,1.40
2022-09-02T06:48:50.011Z,1.40
2022-09-02T06:49:50.002Z,1.50
2022-09-02T06:50:50.010Z,1.60
2022-09-02T06:51:49.953Z,1.40
2022-09-02T06:52:49.992Z,1.50
2022-09-02T06:53:49.930Z,1.40
2022-09-02T06:54:49.928Z,1.40
2022-09-02T06:55:49.945Z,1.50
2022-09-02T06:56:50.000Z,1.40
2022-09-02T06:57:50.000Z,1.40
2022-09-02T06:58:49.897Z,1.60
2022-09-02T06:59:49.856Z,1.60
2022-09-02T07:00:49.874Z,1.50
2022-09-02T07:01:50.051Z,1.30
2022-09-02T07:02:49.822Z,1.40
2022-09-02T07:03:49.805Z,1.40
2022-09-02T07:04:52.091Z,1.70
2022-09-02T07:05:49.769Z,1.40
2022-09-02T07:06:49.847Z,1.70
2022-09-02T07:07:49.786Z,1.40
2022-09-02T07:08:49.754Z,1.40
2022-09-02T07:09:49.723Z,1.60
2022-09-02T07:10:49.701Z,1.40
2022-09-02T07:11:49.710Z,1.70
2022-09-02T07:12:49.684Z,1.70
2022-09-02T07:13:49.673Z,1.50
2022-09-02T07:14:49.643Z,1.50
2022-09-02T07:15:49.637Z,1.70
2022-09-02T07:16:49.717Z,1.50
2022-09-02T07:17:49.614Z,1.50
2022-09-02T07:18:49.592Z,1.40
2022-09-02T07:19:49.582Z,1.50
2022-09-02T07:20:49.565Z,1.50
2022-09-02T07:21:49.622Z,1.60
2022-09-02T07:23:48.623Z,1.20
2022-09-02T07:24:49.515Z,1.70
2022-09-02T07:25:49.527Z,1.90
2022-09-02T07:26:49.503Z,1.50
2022-09-02T07:27:49.481Z,1.50
2022-09-02T07:28:49.458Z,2.20
2022-09-02T07:29:49.467Z,1.40
2022-09-02T07:30:49.514Z,1.50
2022-09-02T07:31:49.476Z,1.50
2022-09-02T07:32:49.411Z,1.40
2022-09-02T07:33:49.916Z,1.50
2022-09-02T07:34:49.393Z,1.40
2022-09-02T07:35:49.381Z,1.30
2022-09-02T07:36:49.364Z,1.60
2022-09-02T07:37:49.349Z,1.50
2022-09-02T07:38:49.331Z,1.50
2022-09-02T07:39:49.495Z,1.60
2022-09-02T07:40:49.369Z,1.30
2022-09-02T07:41:49.306Z,1.50
2022-09-02T07:42:49.361Z,1.40
2022-09-02T07:43:51.133Z,1.40
2022-09-02T07:44:49.261Z,1.70
2022-09-02T07:45:49.255Z,1.50
2022-09-02T07:46:49.244Z,1.50
2022-09-02T07:47:49.214Z,1.50
2022-09-02T07:48:49.196Z,1.60
2022-09-02T07:50:49.183Z,1.70
2022-09-02T07:51:49.176Z,1.50
2022-09-02T07:52:49.138Z,1.70
2022-09-02T07:53:49.131Z,1.40
2022-09-02T07:54:49.125Z,1.50
2022-09-02T07:55:49.102Z,1.40
2022-09-02T07:56:49.115Z,1.30
2022-09-02T07:57:49.082Z,1.50
2022-09-02T07:58:49.064Z,1.50
2022-09-02T07:59:49.082Z,1.50
2022-09-02T08:00:49.041Z,1.80
2022-09-02T08:01:49.038Z,1.60
2022-09-02T08:02:49.160Z,1.60
2022-09-02T08:03:49.001Z,1.50
2022-09-02T08:04:49.143Z,1.60
2022-09-02T08:05:48.979Z,1.70
2022-09-02T08:06:49.000Z,1.80
2022-09-02T08:07:48.972Z,1.60
2022-09-02T08:08:48.934Z,1.60
2022-09-02T08:09:48.924Z,1.70
2022-09-02T08:10:48.919Z,1.70
2022-09-02T08:11:48.899Z,1.50
2022-09-02T08:12:48.889Z,1.60
2022-09-02T08:13:48.953Z,1.50
2022-09-02T08:14:48.940Z,1.70
2022-09-02T08:15:50.882Z,1.70
2022-09-02T08:16:48.981Z,1.70
2022-09-02T08:17:48.814Z,1.50
2022-09-02T08:18:48.848Z,1.40
2022-09-02T08:19:48.798Z,1.70
2022-09-02T08:20:48.766Z,1.50
2022-09-02T08:21:48.782Z,1.40
2022-09-02T08:22:54.630Z,1.60
2022-09-02T08:23:48.754Z,1.80
2022-09-02T08:24:48.853Z,1.60
2022-09-02T08:25:48.713Z,1.80
2022-09-02T08:26:48.801Z,1.80
2022-09-02T08:27:48.833Z,1.60
2022-09-02T08:28:48.671Z,1.50
2022-09-02T08:29:48.707Z,1.70
2022-09-02T08:30:48.684Z,1.40
2022-09-02T08:31:50.820Z,1.60
2022-09-02T08:32:48.604Z,1.40
2022-09-02T08:33:48.603Z,1.70
2022-09-02T08:34:48.583Z,1.40
2022-09-02T08:35:48.591Z,1.60
2022-09-02T08:36:56.747Z,1.70
2022-09-02T08:37:48.559Z,1.60
2022-09-02T08:38:48.534Z,1.90
2022-09-02T08:39:48.541Z,1.40
2022-09-02T08:40:48.667Z,1.30
2022-09-02T08:41:48.641Z,1.60
2022-09-02T08:42:51.142Z,1.90
2022-09-02T08:43:48.459Z,1.60
2022-09-02T08:44:48.487Z,1.70
2022-09-02T08:45:48.482Z,1.70
2022-09-02T08:46:48.424Z,1.50
2022-09-02T08:47:48.416Z,1.70
2022-09-02T08:48:48.388Z,1.60
2022-09-02T08:49:48.432Z,1.70
2022-09-02T08:50:48.469Z,1.50
2022-09-02T08:51:50.926Z,1.60
2022-09-02T08:52:48.342Z,1.90
2022-09-02T08:53:48.325Z,1.50
2022-09-02T08:54:48.303Z,1.90
2022-09-02T08:55:48.304Z,1.80
2022-09-02T08:56:48.292Z,1.80
2022-09-02T08:57:48.279Z,1.80
2022-09-02T08:58:48.249Z,1.60
2022-09-02T08:59:48.313Z,1.60
2022-09-02T09:00:48.273Z,1.90
2022-09-02T09:01:48.272Z,1.70
2022-09-02T09:02:48.208Z,1.70
2022-09-02T09:03:48.214Z,1.60
2022-09-02T09:04:48.174Z,1.60
2022-09-02T09:05:48.193Z,1.40
2022-09-02T09:06:48.666Z,1.50
2022-09-02T09:07:48.169Z,1.60
2022-09-02T09:08:48.133Z,1.40
2022-09-02T09:09:48.129Z,1.70
2022-09-02T09:10:48.092Z,1.60
2022-09-02T09:11:48.101Z,1.70
2022-09-02T09:12:48.068Z,1.50
2022-09-02T09:13:48.059Z,1.60
2022-09-02T09:14:48.069Z,1.70
2022-09-02T09:15:48.042Z,1.50
2022-09-02T09:16:48.046Z,1.60
2022-09-02T09:17:48.016Z,1.60
2022-09-02T09:18:47.998Z,1.70
2022-09-02T09:19:47.974Z,1.60
2022-09-02T09:20:48.023Z,1.50
2022-09-02T09:21:47.944Z,1.80
2022-09-02T09:22:47.942Z,1.60
2022-09-02T09:23:47.959Z,1.70
2022-09-02T09:24:47.898Z,1.50
2022-09-02T09:25:47.928Z,1.70
2022-09-02T09:26:47.880Z,1.80
2022-09-02T09:27:47.866Z,1.80
2022-09-02T09:28:47.851Z,1.70
2022-09-02T09:29:47.836Z,1.60
2022-09-02T09:30:47.826Z,1.60
2022-09-02T09:31:47.835Z,1.70
2022-09-02T09:32:47.812Z,1.70
2022-09-02T09:33:47.793Z,1.60
2022-09-02T09:34:47.866Z,1.90
2022-09-02T09:35:47.798Z,1.80
2022-09-02T09:36:47.777Z,1.80
2022-09-02T09:37:47.747Z,1.70
2022-09-02T09:38:47.712Z,1.90
2022-09-02T09:39:47.719Z,1.60
2022-09-02T09:40:47.711Z,1.60
2022-09-02T09:41:47.678Z,1.50
2022-09-02T09:42:49.900Z,1.80
2022-09-02T09:43:47.656Z,1.50
2022-09-02T09:44:47.632Z,1.70
2022-09-02T09:45:47.810Z,1.90
2022-09-02T09:46:47.623Z,1.80
2022-09-02T09:47:47.656Z,1.40
2022-09-02T09:48:47.595Z,1.70
2022-09-02T09:49:47.580Z,1.80
2022-09-02T09:50:47.555Z,1.50
2022-09-02T09:51:50.272Z,2.00
2022-09-02T09:52:47.550Z,1.80
2022-09-02T09:53:47.523Z,1.50
2022-09-02T09:54:47.516Z,1.90
2022-09-02T09:55:47.480Z,1.90
2022-09-02T09:56:47.484Z,1.80
2022-09-02T09:57:47.474Z,1.60
2022-09-02T09:58:47.445Z,1.70
2022-09-02T09:59:47.440Z,1.70
2022-09-02T10:00:47.459Z,1.70
2022-09-02T10:01:47.427Z,2.10
2022-09-02T10:02:47.423Z,1.80
2022-09-02T10:03:47.371Z,1.80
2022-09-02T10:04:47.406Z,1.70
2022-09-02T10:05:47.361Z,1.50
2022-09-02T10:06:47.397Z,1.70
2022-09-02T10:07:47.347Z,1.80
2022-09-02T10:08:47.330Z,1.70
2022-09-02T10:09:47.297Z,1.80
2022-09-02T10:10:47.287Z,1.70
2022-09-02T10:11:47.280Z,1.90
2022-09-02T10:12:47.273Z,1.70
2022-09-02T10:13:47.247Z,1.70
2022-09-02T10:14:47.257Z,1.70
2022-09-02T10:15:47.259Z,2.00
2022-09-02T10:16:47.267Z,1.70
2022-09-02T10:17:47.246Z,1.70
2022-09-02T10:18:49.193Z,1.80
2022-09-02T10:19:47.179Z,1.70
2022-09-02T10:21:04.391Z,1.60
2022-09-02T10:21:47.171Z,1.50
2022-09-02T10:22:58.702Z,1.50
2022-09-02T10:23:47.146Z,1.80
2022-09-02T10:24:47.121Z,1.80
2022-09-02T10:25:47.100Z,1.60
2022-09-02T10:26:47.100Z,2.10
2022-09-02T10:27:47.089Z,1.70
2022-09-02T10:28:47.092Z,2.00
2022-09-02T10:29:47.191Z,1.90
2022-09-02T10:30:47.066Z,1.70
2022-09-02T10:31:47.073Z,1.90
2022-09-02T10:32:47.069Z,1.80
2022-09-02T10:33:47.007Z,1.90
2022-09-02T10:34:47.017Z,1.90
2022-09-02T10:35:46.963Z,1.80
2022-09-02T10:36:46.977Z,1.60
2022-09-02T10:37:46.952Z,1.50
2022-09-02T10:38:46.968Z,1.70
2022-09-02T10:39:46.917Z,1.60
2022-09-02T10:40:46.940Z,1.70
2022-09-02T10:41:46.918Z,3.80
2022-09-02T10:42:46.906Z,1.90
2022-09-02T10:43:46.876Z,1.80
2022-09-02T10:44:46.854Z,1.80
2022-09-02T10:45:46.857Z,1.60
2022-09-02T10:46:46.953Z,1.50
2022-09-02T10:47:46.886Z,1.50
2022-09-02T10:48:46.805Z,1.60
2022-09-02T10:49:46.787Z,1.70
2022-09-02T10:50:49.493Z,1.50
2022-09-02T10:51:46.859Z,1.80
2022-09-02T10:52:46.792Z,1.40
2022-09-02T10:53:46.729Z,1.60
2022-09-02T10:54:46.748Z,1.60
2022-09-02T10:55:46.693Z,1.70
2022-09-02T10:56:46.685Z,1.70
2022-09-02T10:57:46.683Z,1.70
2022-09-02T10:58:46.701Z,1.50
2022-09-02T10:59:46.704Z,1.70
2022-09-02T11:00:46.723Z,1.50
2022-09-02T11:01:46.618Z,1.60
2022-09-02T11:02:46.621Z,1.90
2022-09-02T11:03:46.690Z,2.00
2022-09-02T11:04:46.600Z,1.60
2022-09-02T11:05:46.570Z,1.60
2022-09-02T11:07:01.873Z,1.70
2022-09-02T11:07:46.549Z,1.90
2022-09-02T11:08:46.598Z,1.70
2022-09-02T11:09:46.555Z,1.80
2022-09-02T11:10:46.513Z,2.10
2022-09-02T11:11:46.515Z,1.70
2022-09-02T11:12:46.473Z,1.80
2022-09-02T11:13:46.446Z,1.70
2022-09-02T11:14:46.450Z,1.90
2022-09-02T11:15:46.482Z,2.00
2022-09-02T11:16:46.415Z,2.00
2022-09-02T11:17:46.400Z,1.60
2022-09-02T11:18:46.471Z,1.80
2022-09-02T11:19:46.362Z,1.60
2022-09-02T11:20:46.364Z,1.70
2022-09-02T11:21:46.342Z,1.70
2022-09-02T11:22:46.340Z,1.70
2022-09-02T11:23:46.333Z,1.60
2022-09-02T11:24:46.675Z,1.70
2022-09-02T11:25:46.348Z,1.80
2022-09-02T11:26:46.277Z,1.60
2022-09-02T11:27:46.297Z,1.80
2022-09-02T11:28:46.270Z,2.60
2022-09-02T11:29:46.240Z,1.80
2022-09-02T11:30:46.314Z,1.40
2022-09-02T11:31:46.209Z,1.50
2022-09-02T11:32:46.213Z,1.50
2022-09-02T11:33:46.184Z,2.00
2022-09-02T11:34:46.168Z,1.80
2022-09-02T11:35:46.190Z,1.60
2022-09-02T11:36:46.164Z,1.80
2022-09-02T11:37:46.134Z,1.80
2022-09-02T11:38:46.120Z,1.60
2022-09-02T11:40:02.343Z,1.80
2022-09-02T11:41:33.672Z,1.50
2022-09-02T11:41:46.142Z,1.70
2022-09-02T11:42:46.082Z,1.90
2022-09-02T11:43:46.091Z,1.80
2022-09-02T11:44:52.274Z,1.80
2022-09-02T11:45:46.070Z,1.60
2022-09-02T11:46:46.057Z,1.80
2022-09-02T11:47:46.117Z,2.00
2022-09-02T11:48:46.006Z,1.60
2022-09-02T11:49:45.977Z,1.70
2022-09-02T11:50:45.974Z,1.70
2022-09-02T11:51:45.945Z,1.70
2022-09-02T11:52:45.958Z,1.50
2022-09-02T11:53:45.918Z,1.50
2022-09-02T11:54:45.922Z,1.80
2022-09-02T11:55:45.910Z,1.60
2022-09-02T11:56:45.924Z,1.70
2022-09-02T11:57:45.877Z,1.80
2022-09-02T11:58:45.893Z,1.40
2022-09-02T11:59:45.842Z,1.50
2022-09-02T12:00:45.824Z,1.80
2022-09-02T12:01:45.812Z,1.80
2022-09-02T12:02:45.817Z,1.50
2022-09-02T12:04:12.071Z,1.50
2022-09-02T12:04:59.810Z,1.90
2022-09-02T12:05:45.924Z,1.90
2022-09-02T12:06:45.824Z,1.50
2022-09-02T12:07:45.749Z,1.60
2022-09-02T12:08:45.773Z,1.70
2022-09-02T12:09:45.709Z,1.50
2022-09-02T12:10:46.956Z,1.70
2022-09-02T12:11:45.742Z,1.80
2022-09-02T12:12:47.797Z,1.70
2022-09-02T12:13:45.752Z,1.60
2022-09-02T12:14:45.644Z,1.80
2022-09-02T12:15:45.687Z,1.60
2022-09-02T12:16:45.625Z,1.60
2022-09-02T12:17:45.622Z,2.00
2022-09-02T12:18:45.588Z,1.90
2022-09-02T12:19:45.576Z,1.60
2022-09-02T12:20:50.629Z,1.60
2022-09-02T12:21:45.558Z,1.60
2022-09-02T12:22:45.564Z,1.70
2022-09-02T12:23:45.529Z,1.80
2022-09-02T12:24:45.522Z,1.80
2022-09-02T12:25:45.495Z,1.90
2022-09-02T12:26:45.496Z,1.60
2022-09-02T12:27:45.510Z,1.60
2022-09-02T12:28:45.492Z,1.60
2022-09-02T12:29:45.442Z,1.60
2022-09-02T12:30:45.454Z,1.80
2022-09-02T12:31:45.552Z,1.50
2022-09-02T12:32:45.426Z,1.60
2022-09-02T12:33:45.392Z,1.80
2022-09-02T12:34:45.382Z,1.50
2022-09-02T12:35:45.366Z,1.50
2022-09-02T12:36:45.360Z,1.90
2022-09-02T12:37:45.358Z,1.40
2022-09-02T12:38:45.332Z,1.70
2022-09-02T12:39:45.310Z,1.90
2022-09-02T12:40:45.363Z,1.50
2022-09-02T12:41:45.308Z,1.50
2022-09-02T12:42:46.710Z,1.90
2022-09-02T12:43:45.258Z,1.80
2022-09-02T12:44:45.244Z,1.60
2022-09-02T12:45:45.230Z,1.60
2022-09-02T12:46:45.314Z,1.70
2022-09-02T12:47:45.214Z,1.80
2022-09-02T12:48:45.199Z,1.90
2022-09-02T12:49:45.197Z,1.80
2022-09-02T12:50:45.183Z,1.80
2022-09-02T12:51:45.151Z,1.80
2022-09-02T12:52:45.157Z,1.90
2022-09-02T12:53:45.118Z,1.60
2022-09-02T12:54:45.117Z,1.60
2022-09-02T12:55:45.123Z,1.70
2022-09-02T12:56:45.119Z,2.00
2022-09-02T12:57:45.112Z,1.80
2022-09-02T12:58:45.094Z,1.80
2022-09-02T12:59:45.051Z,1.70
2022-09-02T13:00:45.075Z,1.90
2022-09-02T13:01:45.251Z,1.70
2022-09-02T13:02:45.054Z,1.70
2022-09-02T13:03:44.993Z,2.10
2022-09-02T13:04:45.094Z,1.80
2022-09-02T13:05:44.977Z,1.80
2022-09-02T13:06:44.956Z,2.10
2022-09-02T13:07:44.958Z,1.80
2022-09-02T13:08:44.927Z,1.70
2022-09-02T13:09:44.944Z,1.80
2022-09-02T13:10:44.961Z,1.90
2022-09-02T13:11:44.894Z,1.70
2022-09-02T13:12:44.929Z,1.60
2022-09-02T13:13:44.885Z,1.90
2022-09-02T13:14:44.847Z,1.60
2022-09-02T13:15:45.043Z,1.80
2022-09-02T13:16:44.836Z,1.90
2022-09-02T13:17:44.852Z,1.50
2022-09-02T13:18:44.901Z,1.70
2022-09-02T13:19:44.777Z,1.70
2022-09-02T13:20:44.785Z,1.60